Time;durP1;ratioP1;P1;durP2;ratioP2;P2;SDS_P1;SDS_P2;PMS_P1;PMS_P2;Temp;Humidity;BMP_temperature;BMP_pressure;BME280_temperature;BME280_humidity;BME280_pressure;Samples;Min_cycle;Max_cycle;Signal;HPM_P1;HPM_P2
2022/10/21 00:00:24;;;;;;;43.97;17.88;;;14.50;99.90;;;;;;5044967;28;20037;-65
2022/10/21 00:02:49;;;;;;;63.63;20.33;;;14.50;99.90;;;;;;5045041;28;20048;-65
2022/10/21 00:05:15;;;;;;;46.45;17.88;;;14.50;99.90;;;;;;5049203;28;20106;-65
2022/10/21 00:07:40;;;;;;;38.67;18.48;;;14.40;99.90;;;;;;5049712;28;20037;-65
2022/10/21 00:10:07;;;;;;;42.58;17.23;;;14.40;99.90;;;;;;5044215;28;20037;-64
2022/10/21 00:12:34;;;;;;;48.38;17.38;;;14.40;99.90;;;;;;5049698;28;20032;-64
2022/10/21 00:15:03;;;;;;;40.47;16.85;;;14.30;99.90;;;;;;5045596;28;20037;-64
2022/10/21 00:17:28;;;;;;;39.47;17.67;;;14.40;99.90;;;;;;5048355;28;20028;-64
2022/10/21 00:19:53;;;;;;;39.20;16.63;;;14.40;99.90;;;;;;5050974;28;20236;-65
2022/10/21 00:22:19;;;;;;;39.35;16.63;;;14.30;99.90;;;;;;5050383;28;20514;-64
2022/10/21 00:24:45;;;;;;;35.13;16.20;;;14.40;99.90;;;;;;5050656;28;20033;-64
2022/10/21 00:27:10;;;;;;;34.95;15.80;;;14.30;99.90;;;;;;5048077;28;20512;-64
2022/10/21 00:29:36;;;;;;;38.65;15.43;;;14.30;99.90;;;;;;5046882;28;20514;-64
2022/10/21 00:32:01;;;;;;;37.83;15.07;;;14.30;99.90;;;;;;5043507;28;20682;-64
2022/10/21 00:34:27;;;;;;;32.53;15.10;;;14.30;99.90;;;;;;5046999;28;20391;-64
2022/10/21 00:36:52;;;;;;;26.60;13.65;;;14.20;99.90;;;;;;5045675;28;20029;-64
2022/10/21 00:39:18;;;;;;;29.38;12.63;;;14.20;99.90;;;;;;5050910;28;20031;-64
2022/10/21 00:41:43;;;;;;;33.47;13.43;;;14.20;99.90;;;;;;5026329;28;20055;-65
2022/10/21 00:44:13;;;;;;;35.45;12.82;;;14.10;99.90;;;;;;5040952;28;20032;-64
2022/10/21 00:46:39;;;;;;;25.65;13.23;;;14.10;99.90;;;;;;5038362;28;20032;-64
2022/10/21 00:49:19;;;;;;;49.58;12.80;;;14.10;99.90;;;;;;5039358;28;20025;-64
2022/10/21 00:51:48;;;;;;;41.53;12.80;;;14.10;99.90;;;;;;5039787;28;20040;-64
2022/10/21 00:54:16;;;;;;;28.55;14.07;;;14.10;99.90;;;;;;5038515;28;20017;-64
2022/10/21 00:56:44;;;;;;;21.75;11.55;;;14.00;99.90;;;;;;5036787;28;20479;-64
2022/10/21 00:59:10;;;;;;;27.23;11.73;;;14.00;99.90;;;;;;5042190;28;20022;-65
2022/10/21 01:01:35;;;;;;;23.42;11.98;;;14.00;99.90;;;;;;5043215;28;20489;-64
2022/10/21 01:04:02;;;;;;;55.30;13.55;;;14.00;99.90;;;;;;5042571;28;20475;-64
2022/10/21 01:06:29;;;;;;;54.63;14.35;;;14.10;99.90;;;;;;5043827;28;20033;-64
2022/10/21 01:08:56;;;;;;;24.23;12.48;;;14.10;99.90;;;;;;5048552;28;20021;-64
2022/10/21 01:11:23;;;;;;;28.90;13.35;;;14.10;99.90;;;;;;5045892;28;20032;-64
2022/10/21 01:14:27;;;;;;;28.80;11.85;;;14.00;99.90;;;;;;5049256;28;20017;-64
2022/10/21 01:17:10;;;;;;;24.52;11.07;;;14.00;99.90;;;;;;5043768;28;20048;-64
2022/10/21 01:20:11;;;;;;;30.02;13.68;;;13.90;99.90;;;;;;5047797;28;20032;-64
2022/10/21 01:22:49;;;;;;;26.25;13.00;;;13.80;99.90;;;;;;5045392;28;20104;-64
2022/10/21 01:25:37;;;;;;;29.58;13.43;;;13.80;99.90;;;;;;5046848;28;20025;-64
2022/10/21 01:28:17;;;;;;;23.90;12.23;;;13.80;99.90;;;;;;5043910;28;20028;-64
2022/10/21 01:30:56;;;;;;;22.73;13.05;;;13.80;99.90;;;;;;5047366;28;20585;-64
2022/10/21 01:33:39;;;;;;;23.98;12.27;;;13.80;99.90;;;;;;5047115;28;20033;-65
2022/10/21 01:36:22;;;;;;;26.83;13.18;;;13.70;99.90;;;;;;5042851;28;20029;-65
2022/10/21 01:39:12;;;;;;;21.92;10.18;;;13.70;99.90;;;;;;5043534;28;20504;-64
2022/10/21 01:42:01;;;;;;;22.92;11.65;;;13.80;99.90;;;;;;5045035;28;20079;-64
2022/10/21 01:44:34;;;;;;;29.55;11.60;;;13.70;99.90;;;;;;5041246;28;20025;-63
2022/10/21 01:47:06;;;;;;;27.38;12.18;;;13.70;99.90;;;;;;5045475;28;20040;-63
2022/10/21 01:49:36;;;;;;;26.88;10.95;;;13.70;99.90;;;;;;5048018;28;20033;-64
2022/10/21 01:52:03;;;;;;;33.38;11.80;;;13.80;99.90;;;;;;5027691;28;20036;-64
2022/10/21 01:54:40;;;;;;;25.02;10.15;;;13.80;99.90;;;;;;5042184;28;20233;-63
2022/10/21 01:57:07;;;;;;;27.70;10.95;;;13.80;99.90;;;;;;5040831;28;20083;-64
2022/10/21 01:59:35;;;;;;;20.60;10.40;;;13.80;99.90;;;;;;5047375;28;20060;-64
2022/10/21 02:02:05;;;;;;;32.00;11.13;;;13.80;99.90;;;;;;5026629;28;20483;-64
2022/10/21 02:04:33;;;;;;;23.27;11.07;;;13.80;99.90;;;;;;5040834;28;20466;-64
2022/10/21 02:06:59;;;;;;;17.42;10.18;;;13.80;99.90;;;;;;5044392;28;20103;-64
2022/10/21 02:09:24;;;;;;;21.13;9.82;;;13.80;99.90;;;;;;5045480;28;20550;-64
2022/10/21 02:11:54;;;;;;;34.75;11.48;;;13.80;99.90;;;;;;5044525;28;20032;-64
2022/10/21 02:14:29;;;;;;;29.15;11.48;;;13.80;99.90;;;;;;5047413;28;20622;-64
2022/10/21 02:16:57;;;;;;;26.90;11.27;;;13.80;99.90;;;;;;5046678;28;20025;-64
2022/10/21 02:19:22;;;;;;;26.23;11.07;;;13.80;99.90;;;;;;5038128;28;20028;-64
2022/10/21 02:21:52;;;;;;;20.65;10.88;;;13.80;99.90;;;;;;5021502;28;20029;-64
2022/10/21 02:24:32;;;;;;;29.05;12.35;;;13.80;99.90;;;;;;5038775;28;20047;-64
2022/10/21 02:26:57;;;;;;;37.85;14.38;;;13.80;99.90;;;;;;5037385;28;21359;-63
2022/10/21 02:29:28;;;;;;;25.63;10.85;;;13.80;99.90;;;;;;5042371;28;20033;-64
2022/10/21 02:32:15;;;;;;;28.42;12.70;;;13.80;99.90;;;;;;5046769;28;20029;-63
2022/10/21 02:35:20;;;;;;;24.77;13.02;;;13.80;99.90;;;;;;5044343;28;20025;-64
2022/10/21 02:38:07;;;;;;;35.83;12.85;;;13.80;99.90;;;;;;5042186;28;20032;-64
2022/10/21 02:40:48;;;;;;;31.83;13.73;;;13.80;99.90;;;;;;5044401;28;20061;-64
2022/10/21 02:43:33;;;;;;;27.85;12.75;;;13.90;99.90;;;;;;5047396;28;20021;-63
2022/10/21 02:46:05;;;;;;;29.75;12.85;;;13.90;99.90;;;;;;5045066;28;20025;-63
2022/10/21 02:48:35;;;;;;;25.35;12.38;;;13.80;99.90;;;;;;5043345;28;20376;-63
2022/10/21 02:51:03;;;;;;;24.67;12.95;;;13.80;99.90;;;;;;5027544;28;20040;-64
2022/10/21 02:53:28;;;;;;;31.27;12.70;;;13.80;99.90;;;;;;5047027;28;20483;-64
2022/10/21 02:55:54;;;;;;;30.10;12.38;;;13.90;99.90;;;;;;5045598;28;20044;-63
2022/10/21 02:58:19;;;;;;;28.30;12.20;;;13.90;99.90;;;;;;5045155;28;20040;-64
2022/10/21 03:00:45;;;;;;;31.35;11.73;;;13.90;99.90;;;;;;5038085;28;20021;-64
2022/10/21 03:03:10;;;;;;;30.48;11.27;;;13.90;99.90;;;;;;5040909;28;20552;-64
2022/10/21 03:05:36;;;;;;;25.58;12.70;;;13.90;99.90;;;;;;5046000;28;20111;-63
2022/10/21 03:08:01;;;;;;;25.38;11.57;;;13.90;99.90;;;;;;5044371;28;20033;-63
2022/10/21 03:10:28;;;;;;;37.35;12.05;;;13.90;99.90;;;;;;5045062;28;20116;-63
2022/10/21 03:12:53;;;;;;;21.58;10.13;;;13.90;99.90;;;;;;5041011;28;20048;-64
2022/10/21 03:15:19;;;;;;;20.73;11.63;;;13.90;99.90;;;;;;5046638;28;20033;-63
2022/10/21 03:17:45;;;;;;;25.90;12.00;;;14.00;99.90;;;;;;5046029;28;20021;-64
2022/10/21 03:20:11;;;;;;;45.72;12.05;;;13.90;99.90;;;;;;5045962;28;20073;-64
2022/10/21 03:22:37;;;;;;;27.05;10.85;;;13.90;99.90;;;;;;5042580;28;20506;-64
2022/10/21 03:25:03;;;;;;;24.80;10.68;;;13.90;99.90;;;;;;5047169;28;20411;-63
2022/10/21 03:27:29;;;;;;;23.75;10.10;;;13.90;99.90;;;;;;5040807;28;20033;-63
2022/10/21 03:29:54;;;;;;;38.60;11.27;;;13.90;99.90;;;;;;5040896;28;20021;-62
2022/10/21 03:32:20;;;;;;;26.85;10.73;;;13.90;99.90;;;;;;5035855;28;20032;-64
2022/10/21 03:34:45;;;;;;;39.38;13.02;;;13.90;99.90;;;;;;5036866;28;20029;-64
2022/10/21 03:37:11;;;;;;;16.92;9.85;;;13.90;99.90;;;;;;5038843;28;20643;-63
2022/10/21 03:39:36;;;;;;;19.13;8.55;;;13.80;99.90;;;;;;5036995;28;20048;-64
2022/10/21 03:42:02;;;;;;;20.23;9.30;;;13.80;99.90;;;;;;5037595;28;20048;-64
2022/10/21 03:44:27;;;;;;;31.25;9.40;;;13.80;99.90;;;;;;5036543;28;20060;-64
2022/10/21 03:46:53;;;;;;;24.83;9.65;;;13.80;99.90;;;;;;5034856;28;20126;-64
2022/10/21 03:49:18;;;;;;;18.45;8.38;;;13.80;99.90;;;;;;5036735;28;20487;-64
2022/10/21 03:51:44;;;;;;;31.35;10.15;;;13.80;99.90;;;;;;5042798;28;20033;-64
2022/10/21 03:54:09;;;;;;;26.25;9.18;;;13.80;99.90;;;;;;5045008;28;20029;-64
2022/10/21 03:56:35;;;;;;;25.88;8.70;;;13.80;99.90;;;;;;5046929;28;20033;-64
2022/10/21 03:59:01;;;;;;;25.42;8.95;;;13.80;99.90;;;;;;5044723;28;20025;-64
2022/10/21 04:01:26;;;;;;;33.65;8.68;;;13.80;99.90;;;;;;5042271;28;20029;-65
2022/10/21 04:03:52;;;;;;;31.38;9.52;;;13.80;99.90;;;;;;5045321;28;20475;-63
2022/10/21 04:06:17;;;;;;;42.63;9.82;;;13.80;99.90;;;;;;5038533;28;20510;-64
2022/10/21 04:08:43;;;;;;;23.58;8.80;;;13.80;99.90;;;;;;5048430;28;20132;-63
2022/10/21 04:11:08;;;;;;;22.33;8.93;;;13.80;99.90;;;;;;5047560;28;20044;-63
2022/10/21 04:13:34;;;;;;;31.88;8.73;;;13.80;99.90;;;;;;5046681;28;20032;-63
2022/10/21 04:16:02;;;;;;;23.63;8.65;;;13.80;99.90;;;;;;5042544;28;20029;-64
2022/10/21 04:18:28;;;;;;;22.02;7.50;;;13.80;99.90;;;;;;5039624;28;20040;-64
2022/10/21 04:20:53;;;;;;;16.73;7.05;;;13.80;99.90;;;;;;5036205;28;20029;-64
2022/10/21 04:23:19;;;;;;;16.90;8.63;;;13.80;99.90;;;;;;5037014;28;20033;-64
2022/10/21 04:25:44;;;;;;;13.68;8.05;;;13.80;99.90;;;;;;5039693;28;20491;-64
2022/10/21 04:28:10;;;;;;;51.35;8.75;;;13.90;99.90;;;;;;5036615;28;20029;-63
2022/10/21 04:30:36;;;;;;;41.40;8.35;;;13.90;99.90;;;;;;5035491;28;20044;-64
2022/10/21 04:33:01;;;;;;;13.65;6.53;;;13.90;99.90;;;;;;5037770;28;20032;-63
2022/10/21 04:35:27;;;;;;;21.00;7.05;;;13.90;99.90;;;;;;5036429;28;20078;-64
2022/10/21 04:37:52;;;;;;;22.20;7.95;;;14.00;99.90;;;;;;5038104;28;20029;-64
2022/10/21 04:40:18;;;;;;;27.75;8.20;;;14.00;99.90;;;;;;5027729;28;20506;-64
2022/10/21 04:42:48;;;;;;;27.00;7.40;;;14.00;99.90;;;;;;5040959;28;20024;-63
2022/10/21 04:45:13;;;;;;;19.60;6.85;;;14.10;99.90;;;;;;5038478;28;20498;-63
2022/10/21 04:47:39;;;;;;;28.40;8.90;;;14.10;99.90;;;;;;5039567;28;20032;-64
2022/10/21 04:50:05;;;;;;;29.20;7.18;;;14.10;99.90;;;;;;5047721;28;20029;-64
2022/10/21 04:52:30;;;;;;;14.77;6.75;;;14.10;99.90;;;;;;5036802;28;20060;-64
2022/10/21 04:54:56;;;;;;;25.88;7.05;;;14.10;99.90;;;;;;5041495;28;20661;-64
2022/10/21 04:57:21;;;;;;;18.23;6.60;;;14.10;99.90;;;;;;5034844;28;20029;-63
2022/10/21 04:59:47;;;;;;;47.45;7.95;;;14.10;99.90;;;;;;5039456;28;20067;-64
2022/10/21 05:02:12;;;;;;;23.88;7.22;;;14.20;99.90;;;;;;5039403;28;20036;-64
2022/10/21 05:04:38;;;;;;;19.55;6.65;;;14.20;99.90;;;;;;5039770;28;20106;-64
2022/10/21 05:07:04;;;;;;;15.18;6.00;;;14.20;99.90;;;;;;5053693;28;20082;-63
2022/10/21 05:09:29;;;;;;;30.52;7.10;;;14.20;99.90;;;;;;5042691;28;20052;-64
2022/10/21 05:11:55;;;;;;;20.13;6.75;;;14.30;99.90;;;;;;5047951;28;20036;-64
2022/10/21 05:14:20;;;;;;;25.27;7.13;;;14.30;99.90;;;;;;5056637;28;20041;-64
2022/10/21 05:16:46;;;;;;;12.80;5.88;;;14.30;99.90;;;;;;5050805;28;20036;-64
2022/10/21 05:19:12;;;;;;;21.17;7.05;;;14.30;99.90;;;;;;5052253;28;20371;-64
2022/10/21 05:21:37;;;;;;;16.25;5.50;;;14.30;99.90;;;;;;5051800;28;20025;-64
2022/10/21 05:24:03;;;;;;;12.05;6.88;;;14.30;99.90;;;;;;5049222;28;20034;-63
2022/10/21 05:26:29;;;;;;;36.22;6.20;;;14.30;99.90;;;;;;5043297;28;20052;-64
2022/10/21 05:28:58;;;;;;;9.93;5.55;;;14.30;99.90;;;;;;5046585;28;20021;-64
2022/10/21 05:31:24;;;;;;;24.88;6.18;;;14.30;99.90;;;;;;5039822;28;20511;-64
2022/10/21 05:33:50;;;;;;;11.55;5.40;;;14.30;99.90;;;;;;5040671;28;20067;-64
2022/10/21 05:36:15;;;;;;;17.33;5.60;;;14.30;99.90;;;;;;5039819;28;20112;-64
2022/10/21 05:38:41;;;;;;;29.08;5.95;;;14.30;99.90;;;;;;5039300;28;20052;-63
2022/10/21 05:41:07;;;;;;;24.75;6.20;;;14.40;99.90;;;;;;5040194;28;21023;-63
2022/10/21 05:43:32;;;;;;;18.80;6.43;;;14.30;99.90;;;;;;5040556;28;20097;-63
2022/10/21 05:45:58;;;;;;;54.20;6.60;;;14.30;99.90;;;;;;5039646;28;20096;-63
2022/10/21 05:48:24;;;;;;;20.55;5.35;;;14.40;99.90;;;;;;5040284;28;20045;-64
2022/10/21 05:50:52;;;;;;;43.13;7.28;;;14.30;99.90;;;;;;5054381;28;20617;-64
2022/10/21 05:53:17;;;;;;;45.95;7.25;;;14.40;99.90;;;;;;5040926;28;20119;-63
2022/10/21 05:55:43;;;;;;;12.68;5.78;;;14.30;99.90;;;;;;5042450;28;20108;-63
2022/10/21 06:00:53;;;;;;;40.92;6.15;;;14.40;99.90;;;;;;5021111;28;20232;-58
2022/10/21 06:03:20;;;;;;;15.13;5.15;;;14.40;99.90;;;;;;5026104;28;20026;-56
2022/10/21 06:05:45;;;;;;;11.20;5.22;;;14.40;99.90;;;;;;5026079;28;20036;-59
2022/10/21 06:08:11;;;;;;;18.88;5.18;;;14.40;99.90;;;;;;5023280;28;20030;-58
2022/10/21 06:10:36;;;;;;;13.02;5.07;;;14.40;99.90;;;;;;5013424;28;20052;-62
2022/10/21 06:13:02;;;;;;;18.02;5.63;;;14.40;99.90;;;;;;5012597;28;20026;-58
2022/10/21 06:15:27;;;;;;;15.50;5.35;;;14.40;99.90;;;;;;5008801;28;20171;-58
2022/10/21 06:17:53;;;;;;;17.83;5.63;;;14.40;99.90;;;;;;5012290;28;20053;-58
2022/10/21 06:20:18;;;;;;;27.40;5.72;;;14.40;99.90;;;;;;5005429;28;20030;-60
2022/10/21 06:22:44;;;;;;;11.93;5.43;;;14.40;99.90;;;;;;5004843;28;20554;-60
2022/10/21 06:25:09;;;;;;;15.30;6.07;;;14.40;99.90;;;;;;5008926;28;20794;-59
2022/10/21 06:27:35;;;;;;;11.55;4.57;;;14.40;99.90;;;;;;5003036;28;20917;-57
2022/10/21 06:30:00;;;;;;;10.32;5.10;;;14.40;99.90;;;;;;5003027;28;20038;-61
2022/10/21 06:32:26;;;;;;;19.15;5.00;;;14.40;99.90;;;;;;5000997;28;20030;-61
2022/10/21 06:34:52;;;;;;;18.70;5.03;;;14.50;99.90;;;;;;4993864;28;20108;-59
2022/10/21 06:37:17;;;;;;;19.02;4.97;;;14.50;99.90;;;;;;4998966;28;20072;-60
2022/10/21 06:39:43;;;;;;;9.40;5.38;;;14.60;99.90;;;;;;4999830;28;20489;-53
2022/10/21 06:42:08;;;;;;;20.30;5.30;;;14.60;99.90;;;;;;4999488;28;20022;-59
2022/10/21 06:44:34;;;;;;;11.57;4.80;;;14.60;99.90;;;;;;5000723;28;20049;-57
2022/10/21 06:46:59;;;;;;;27.42;5.28;;;14.70;99.90;;;;;;5002642;28;20041;-58
2022/10/21 06:49:25;;;;;;;18.30;4.95;;;14.70;99.90;;;;;;4996290;28;20060;-57
2022/10/21 06:51:50;;;;;;;18.95;4.72;;;14.80;99.90;;;;;;4999991;28;20026;-60
2022/10/21 06:54:16;;;;;;;11.88;4.82;;;14.80;99.90;;;;;;5001549;28;20022;-59
2022/10/21 06:56:41;;;;;;;14.55;5.13;;;14.80;99.90;;;;;;5001802;28;20033;-56
2022/10/21 06:59:08;;;;;;;31.30;4.85;;;14.80;99.90;;;;;;5005117;28;20045;-57
2022/10/21 07:01:35;;;;;;;10.13;4.18;;;14.80;99.90;;;;;;5001765;28;20030;-59
2022/10/21 07:04:02;;;;;;;12.65;4.00;;;14.90;99.90;;;;;;4998048;28;20033;-58
2022/10/21 07:06:28;;;;;;;12.32;4.40;;;14.90;99.90;;;;;;4990958;28;20392;-62
2022/10/21 07:08:54;;;;;;;7.88;4.28;;;14.90;99.90;;;;;;5015660;28;20026;-58
2022/10/21 07:11:19;;;;;;;32.28;5.25;;;14.90;99.90;;;;;;5009014;28;20033;-59
2022/10/21 07:13:45;;;;;;;25.10;4.38;;;14.90;99.90;;;;;;5015024;28;20080;-58
2022/10/21 07:16:25;;;;;;;19.50;4.97;;;14.90;99.90;;;;;;5004113;28;21284;-59
2022/10/21 07:18:52;;;;;;;14.65;4.05;;;14.90;99.90;;;;;;4989362;28;20507;-61
2022/10/21 07:21:19;;;;;;;14.88;4.50;;;14.90;99.90;;;;;;4998911;28;20096;-61
2022/10/21 07:23:46;;;;;;;25.75;4.50;;;14.90;99.90;;;;;;5000376;28;20026;-57
2022/10/21 07:26:12;;;;;;;12.18;4.28;;;14.90;99.90;;;;;;5000189;28;20044;-61
2022/10/21 07:28:39;;;;;;;15.00;4.63;;;14.90;99.90;;;;;;5001983;28;20026;-59
2022/10/21 07:31:05;;;;;;;10.75;4.00;;;14.90;99.90;;;;;;5000977;28;20451;-59
2022/10/21 07:33:32;;;;;;;12.02;5.07;;;14.90;99.90;;;;;;5010360;28;20030;-62
2022/10/21 07:36:06;;;;;;;16.65;4.57;;;15.00;99.90;;;;;;4997879;28;20049;-53
2022/10/21 07:38:31;;;;;;;45.58;5.00;;;15.00;99.90;;;;;;5004162;28;20022;-56
2022/10/21 07:40:58;;;;;;;15.70;4.47;;;15.00;99.90;;;;;;5001814;28;20026;-58
2022/10/21 07:43:23;;;;;;;23.35;4.95;;;15.00;99.90;;;;;;5001082;28;20369;-55
2022/10/21 07:45:49;;;;;;;23.67;7.20;;;15.00;99.90;;;;;;4998715;28;20026;-56
2022/10/21 07:48:14;;;;;;;10.60;6.07;;;15.10;99.90;;;;;;4997987;28;20022;-63
2022/10/21 07:50:40;;;;;;;11.18;4.50;;;15.00;99.90;;;;;;4997132;28;20058;-61
2022/10/21 07:53:06;;;;;;;20.52;5.10;;;15.00;99.90;;;;;;4997228;28;20030;-62
2022/10/21 07:55:31;;;;;;;21.92;4.97;;;15.10;99.90;;;;;;4983574;28;20037;-62
2022/10/21 07:57:57;;;;;;;9.15;4.22;;;15.10;99.90;;;;;;5000616;28;20037;-62
2022/10/21 08:00:23;;;;;;;42.65;6.22;;;15.10;99.90;;;;;;5002862;28;20030;-63
2022/10/21 08:02:53;;;;;;;17.15;4.07;;;15.10;99.90;;;;;;5004985;28;20018;-63
2022/10/21 08:05:20;;;;;;;59.28;6.47;;;15.10;99.90;;;;;;5000144;28;20403;-63
2022/10/21 08:07:45;;;;;;;21.10;4.25;;;15.10;99.90;;;;;;5001876;28;20041;-63
2022/10/21 08:10:11;;;;;;;30.05;4.45;;;15.10;99.90;;;;;;5008070;28;20049;-64
2022/10/21 08:12:37;;;;;;;10.73;3.85;;;15.10;99.90;;;;;;5003305;28;20045;-63
2022/10/21 08:15:03;;;;;;;15.35;4.22;;;15.10;99.90;;;;;;5007961;28;20025;-63
2022/10/21 08:17:28;;;;;;;11.35;4.13;;;15.00;99.90;;;;;;5017629;28;20119;-63
2022/10/21 08:19:55;;;;;;;9.43;3.97;;;15.10;99.90;;;;;;5008739;28;20444;-56
2022/10/21 08:22:21;;;;;;;8.18;3.53;;;15.10;99.90;;;;;;5016246;28;20032;-61
2022/10/21 08:24:46;;;;;;;8.77;3.88;;;15.10;99.90;;;;;;5004810;28;20033;-62
2022/10/21 08:27:12;;;;;;;8.45;3.75;;;15.00;99.90;;;;;;5002843;28;20099;-63
2022/10/21 08:29:37;;;;;;;9.90;4.00;;;15.00;99.90;;;;;;5004207;28;20033;-61
2022/10/21 08:32:03;;;;;;;10.57;4.55;;;14.90;99.90;;;;;;5005134;28;20112;-63
2022/10/21 08:34:29;;;;;;;35.30;6.13;;;14.90;99.90;;;;;;5004346;28;20498;-63
2022/10/21 08:36:55;;;;;;;32.92;5.63;;;15.00;99.90;;;;;;5007098;28;20160;-65
2022/10/21 08:39:20;;;;;;;8.20;4.63;;;15.00;99.90;;;;;;5009182;28;20030;-63
2022/10/21 08:41:54;;;;;;;73.90;9.75;;;15.00;99.90;;;;;;5001846;28;20517;-63
2022/10/21 08:44:42;;;;;;;17.17;5.53;;;14.90;99.90;;;;;;5003121;28;20074;-63
2022/10/21 08:47:28;;;;;;;21.73;5.95;;;14.90;99.90;;;;;;5002654;28;20300;-64
2022/10/21 08:50:12;;;;;;;26.95;6.35;;;14.90;99.90;;;;;;5001739;28;20115;-64
2022/10/21 08:52:42;;;;;;;23.33;7.18;;;15.00;99.90;;;;;;5002003;28;20680;-64
2022/10/21 08:55:25;;;;;;;10.82;5.60;;;14.90;99.90;;;;;;4997353;28;20066;-64
2022/10/21 08:57:53;;;;;;;17.83;6.40;;;15.00;99.90;;;;;;5003790;28;20077;-63
2022/10/21 09:00:26;;;;;;;22.00;7.13;;;15.00;99.90;;;;;;5004011;28;20030;-64
2022/10/21 09:03:13;;;;;;;17.35;7.25;;;15.00;99.90;;;;;;5004859;28;20492;-63
2022/10/21 09:06:16;;;;;;;30.70;7.43;;;15.00;99.90;;;;;;5002230;28;20029;-63
2022/10/21 09:09:02;;;;;;;36.33;7.60;;;15.00;99.90;;;;;;5002541;28;20073;-63
2022/10/21 09:11:45;;;;;;;37.53;7.88;;;15.00;99.90;;;;;;5000994;28;20042;-63
2022/10/21 09:14:22;;;;;;;19.20;7.10;;;15.00;99.90;;;;;;5001739;28;20121;-63
2022/10/21 09:17:17;;;;;;;15.63;6.95;;;15.00;99.90;;;;;;5003463;28;20030;-63
2022/10/21 09:20:20;;;;;;;22.60;7.32;;;15.10;99.90;;;;;;5001545;28;20510;-62
2022/10/21 09:23:19;;;;;;;17.42;7.65;;;15.10;99.90;;;;;;5004062;28;20033;-63
2022/10/21 09:26:14;;;;;;;19.17;7.32;;;15.10;99.90;;;;;;4990741;28;20194;-63
2022/10/21 09:28:39;;;;;;;18.58;7.30;;;15.10;99.90;;;;;;4988248;28;20038;-63
2022/10/21 09:31:15;;;;;;;20.58;8.27;;;15.00;99.90;;;;;;4999830;28;20044;-63
2022/10/21 09:33:45;;;;;;;15.52;7.03;;;15.00;99.90;;;;;;5004702;28;20034;-61
2022/10/21 09:36:21;;;;;;;25.27;7.75;;;15.00;99.90;;;;;;5000120;28;20477;-64
2022/10/21 09:39:18;;;;;;;17.67;7.80;;;15.10;99.90;;;;;;4998318;28;20030;-64
2022/10/21 09:41:48;;;;;;;20.88;8.30;;;15.00;99.90;;;;;;5004234;28;20115;-63
2022/10/21 09:44:21;;;;;;;19.50;7.72;;;15.00;99.90;;;;;;5000956;28;20085;-62
2022/10/21 09:46:48;;;;;;;17.70;8.02;;;15.00;99.90;;;;;;5000156;28;20031;-63
2022/10/21 09:49:32;;;;;;;15.73;6.57;;;15.10;99.90;;;;;;4998658;28;20026;-63
2022/10/21 09:52:00;;;;;;;28.23;7.60;;;15.20;99.90;;;;;;5001449;28;20022;-63
2022/10/21 09:54:32;;;;;;;29.90;7.45;;;15.20;99.90;;;;;;4999548;28;20025;-64
2022/10/21 09:57:30;;;;;;;21.80;6.95;;;15.30;99.90;;;;;;4998259;28;20159;-64
2022/10/21 09:59:59;;;;;;;17.50;6.25;;;15.30;99.90;;;;;;5004298;28;20109;-63
2022/10/21 10:02:33;;;;;;;14.48;5.63;;;15.40;99.90;;;;;;5004641;28;20060;-63
2022/10/21 10:04:59;;;;;;;16.90;7.03;;;15.40;99.90;;;;;;5007781;28;20034;-65
2022/10/21 10:07:25;;;;;;;19.25;7.35;;;15.40;99.90;;;;;;5002525;28;20060;-64
2022/10/21 10:09:50;;;;;;;19.50;9.27;;;15.40;99.90;;;;;;5006467;28;20065;-65
2022/10/21 10:12:21;;;;;;;19.55;6.80;;;15.40;99.90;;;;;;5012147;28;20034;-64
2022/10/21 10:14:47;;;;;;;14.02;6.80;;;15.40;99.90;;;;;;5005064;28;20495;-64
2022/10/21 10:17:35;;;;;;;20.20;7.22;;;15.50;99.90;;;;;;5009974;28;20030;-64
2022/10/21 10:20:11;;;;;;;16.00;6.80;;;15.50;99.90;;;;;;5004720;28;20018;-64
2022/10/21 10:22:40;;;;;;;62.97;8.35;;;15.50;99.90;;;;;;5008995;28;20030;-64
2022/10/21 10:25:18;;;;;;;14.98;6.32;;;15.60;99.90;;;;;;5000933;28;20030;-63
2022/10/21 10:27:55;;;;;;;22.15;6.15;;;15.60;99.90;;;;;;5002888;28;20107;-63
2022/10/21 10:30:27;;;;;;;15.52;7.00;;;15.60;99.90;;;;;;4980396;28;20115;-62
2022/10/21 10:32:55;;;;;;;18.20;6.45;;;15.60;99.90;;;;;;5005226;28;20026;-64
2022/10/21 10:35:32;;;;;;;46.25;8.43;;;15.60;99.90;;;;;;5001060;28;20373;-63
2022/10/21 10:38:01;;;;;;;25.45;7.20;;;15.60;99.90;;;;;;5007716;28;20088;-64
2022/10/21 10:40:40;;;;;;;16.98;8.43;;;15.60;99.90;;;;;;5009811;28;20033;-64
2022/10/21 10:43:25;;;;;;;20.25;7.80;;;15.60;99.90;;;;;;5001841;28;20034;-64
2022/10/21 10:45:58;;;;;;;25.02;7.22;;;15.60;99.90;;;;;;4991555;28;20038;-63
2022/10/21 10:49:01;;;;;;;102.05;10.45;;;15.70;99.90;;;;;;5800753;22;20036;-64
2022/10/21 10:51:31;;;;;;;54.75;9.55;;;15.70;99.90;;;;;;4981395;28;20037;-67
2022/10/21 10:54:06;;;;;;;27.35;6.20;;;15.70;99.90;;;;;;4984993;28;20038;-66
2022/10/21 10:56:41;;;;;;;50.45;7.70;;;15.70;99.90;;;;;;4984476;28;20049;-65
2022/10/21 10:59:13;;;;;;;26.70;7.55;;;15.80;99.90;;;;;;4975577;28;20031;-63
2022/10/21 11:01:47;;;;;;;17.75;7.38;;;15.70;99.90;;;;;;4960191;28;20034;-63
2022/10/21 11:04:22;;;;;;;19.67;8.68;;;15.70;99.90;;;;;;4963375;28;20066;-64
2022/10/21 11:06:52;;;;;;;15.63;7.22;;;15.70;99.90;;;;;;4964586;28;20019;-64
2022/10/21 11:09:19;;;;;;;27.08;8.82;;;15.70;99.90;;;;;;4968783;28;20045;-63
2022/10/21 11:11:47;;;;;;;16.30;7.47;;;15.80;99.90;;;;;;5014515;22;20050;-67
2022/10/21 11:14:15;;;;;;;19.48;8.55;;;15.80;99.90;;;;;;5030725;28;20022;-66
2022/10/21 11:16:56;;;;;;;22.77;8.50;;;15.80;99.90;;;;;;5025463;28;20092;-67
2022/10/21 11:19:27;;;;;;;28.63;9.15;;;15.90;99.90;;;;;;5019840;28;20042;-66
2022/10/21 11:22:25;;;;;;;18.38;8.68;;;16.10;99.90;;;;;;5022887;28;20033;-66
2022/10/21 11:25:26;;;;;;;50.97;10.57;;;16.20;99.90;;;;;;4994633;28;20033;-67
2022/10/21 11:28:19;;;;;;;60.25;11.23;;;16.30;99.90;;;;;;5019361;28;20097;-64
2022/10/21 11:31:06;;;;;;;31.83;9.52;;;16.40;99.90;;;;;;5018974;28;20045;-64
2022/10/21 11:33:46;;;;;;;26.90;9.82;;;16.40;99.90;;;;;;5018856;28;20053;-64
2022/10/21 11:36:20;;;;;;;24.55;9.00;;;16.40;99.90;;;;;;5019276;28;20026;-65
2022/10/21 11:39:12;;;;;;;16.30;9.02;;;16.50;99.90;;;;;;5021148;28;22108;-64
2022/10/21 11:41:46;;;;;;;25.40;8.68;;;16.60;99.90;;;;;;5025967;28;20039;-67
2022/10/21 11:44:15;;;;;;;;;;;16.70;99.90;;;;;;5023195;28;20654;-65
2022/10/21 11:47:10;;;;;;;25.10;8.93;;;16.70;99.90;;;;;;5019268;28;19920;-65
2022/10/21 11:49:52;;;;;;;25.15;9.20;;;16.70;99.90;;;;;;5031187;28;20403;-65
2022/10/21 11:52:39;;;;;;;18.70;9.32;;;16.90;99.90;;;;;;5011406;28;20025;-63
2022/10/21 11:55:16;;;;;;;27.88;8.73;;;17.20;99.90;;;;;;5020265;28;20029;-65
2022/10/21 11:57:55;;;;;;;24.95;7.95;;;17.70;99.90;;;;;;5031948;28;20025;-65
2022/10/21 12:00:24;;;;;;;12.98;7.65;;;18.00;99.90;;;;;;5036239;28;20144;-64
2022/10/21 12:03:04;;;;;;;21.85;7.75;;;18.10;99.90;;;;;;5038709;28;20055;-66
2022/10/21 12:06:03;;;;;;;18.02;7.50;;;18.20;99.90;;;;;;5024537;28;20045;-65
2022/10/21 12:08:44;;;;;;;16.85;6.78;;;18.30;99.90;;;;;;4981265;28;20052;-65
2022/10/21 12:11:28;;;;;;;15.80;5.45;;;18.50;99.90;;;;;;5029747;28;20517;-65
2022/10/21 12:14:13;;;;;;;33.72;6.55;;;18.40;99.90;;;;;;5031258;28;21991;-65
2022/10/21 12:16:39;;;;;;;9.98;3.92;;;18.40;99.90;;;;;;5029762;28;20104;-64
2022/10/21 12:19:09;;;;;;;11.68;4.28;;;18.30;99.90;;;;;;5030910;28;20096;-65
2022/10/21 12:21:42;;;;;;;17.88;4.07;;;18.30;99.90;;;;;;5026129;28;20022;-65
2022/10/21 12:24:22;;;;;;;8.40;3.10;;;18.40;99.90;;;;;;5017684;28;20025;-64
2022/10/21 12:27:12;;;;;;;52.67;4.22;;;18.60;99.90;;;;;;5032675;28;20094;-65
2022/10/21 12:30:03;;;;;;;7.95;2.70;;;18.90;99.90;;;;;;5021386;28;20021;-65
2022/10/21 12:33:07;;;;;;;11.73;2.55;;;18.80;99.90;;;;;;5026460;28;20103;-65
2022/10/21 12:35:41;;;;;;;6.88;2.28;;;18.80;99.90;;;;;;4999027;28;20045;-64
2022/10/21 12:38:43;;;;;;;6.82;2.20;;;18.60;99.90;;;;;;5030447;28;20026;-65
2022/10/21 12:41:28;;;;;;;6.57;2.50;;;18.70;99.90;;;;;;5029971;28;20025;-63
2022/10/21 12:44:24;;;;;;;17.73;2.90;;;18.80;99.90;;;;;;5032029;28;20037;-65
2022/10/21 12:46:55;;;;;;;2.97;2.20;;;18.80;99.90;;;;;;5030781;28;20040;-64
2022/10/21 12:49:32;;;;;;;88.15;4.82;;;18.60;99.90;;;;;;5033150;28;20546;-65
2022/10/21 12:52:01;;;;;;;74.53;4.85;;;18.60;99.90;;;;;;5021411;28;20104;-65
2022/10/21 12:54:30;;;;;;;4.65;2.13;;;18.50;99.90;;;;;;5021389;28;20442;-64
2022/10/21 12:57:02;;;;;;;31.60;3.53;;;18.40;99.90;;;;;;5025993;28;20046;-63
2022/10/21 12:59:35;;;;;;;30.38;3.90;;;18.50;99.90;;;;;;5017291;28;20071;-65